Time;durP1;ratioP1;P1;durP2;ratioP2;P2;SDS_P1;SDS_P2;PMS_P1;PMS_P2;Temp;Humidity;BMP_temperature;BMP_pressure;BME280_temperature;BME280_humidity;BME280_pressure;Samples;Min_cycle;Max_cycle;Signal;HPM_P1;HPM_P2
2022/04/14 00:00:29;;;;;;;3.70;2.50;;;21.60;54.20;22.70;101166.00;;;;5069146;28;20235;-52
2022/04/14 00:02:55;;;;;;;2.73;2.50;;;21.50;54.20;22.70;101171.00;;;;5069548;28;20174;-52
2022/04/14 00:05:21;;;;;;;3.00;2.60;;;21.50;54.20;22.70;101173.00;;;;5069087;28;20312;-52
2022/04/14 00:07:46;;;;;;;2.90;2.60;;;21.50;54.20;22.70;101173.00;;;;5068804;28;20170;-52
2022/04/14 00:10:13;;;;;;;2.60;2.40;;;21.50;54.30;22.60;101175.00;;;;5068794;28;20222;-51
2022/04/14 00:12:40;;;;;;;2.53;2.30;;;21.50;54.30;22.60;101179.00;;;;5066859;28;20307;-52
2022/04/14 00:15:06;;;;;;;2.50;2.30;;;21.50;54.30;22.60;101182.00;;;;5070669;28;20169;-52
2022/04/14 00:17:33;;;;;;;2.70;2.50;;;21.50;54.30;22.60;101180.00;;;;5067651;28;20166;-51
2022/04/14 00:20:08;;;;;;;2.40;2.20;;;21.50;54.30;22.60;101178.00;;;;5067461;28;20200;-52
2022/04/14 00:22:34;;;;;;;2.50;2.30;;;21.40;54.30;22.60;101171.00;;;;5067377;28;20157;-52
2022/04/14 00:25:00;;;;;;;2.47;2.27;;;21.40;54.30;22.60;101167.00;;;;5067711;28;20191;-51
2022/04/14 00:27:26;;;;;;;2.63;2.40;;;21.40;54.30;22.60;101179.00;;;;5067507;28;20174;-54
2022/04/14 00:29:52;;;;;;;2.50;2.30;;;21.40;54.40;22.60;101173.00;;;;5068603;28;20197;-52
2022/04/14 00:32:17;;;;;;;2.50;2.30;;;21.40;54.40;22.60;101175.00;;;;5070165;28;20291;-53
2022/04/14 00:34:43;;;;;;;2.83;2.20;;;21.40;54.40;22.50;101178.00;;;;5068590;28;20178;-52
2022/04/14 00:37:10;;;;;;;2.73;2.20;;;21.40;54.50;22.50;101168.00;;;;5067058;28;20173;-51
2022/04/14 00:39:37;;;;;;;2.50;2.30;;;21.40;54.90;22.50;101168.00;;;;5068685;28;20175;-51
2022/04/14 00:42:13;;;;;;;2.77;2.57;;;21.40;54.60;22.50;101174.00;;;;5068475;28;20185;-51
2022/04/14 00:44:38;;;;;;;2.50;2.30;;;21.40;54.60;22.50;101161.00;;;;5070151;28;20543;-53
2022/04/14 00:47:05;;;;;;;2.37;2.17;;;21.40;54.70;22.50;101165.00;;;;5067973;28;20173;-52
2022/04/14 00:49:30;;;;;;;2.60;2.37;;;21.30;54.70;22.50;101158.00;;;;5067723;28;20364;-52
2022/04/14 00:51:59;;;;;;;2.60;2.40;;;21.40;54.70;22.50;101158.00;;;;5067174;28;20185;-50
2022/04/14 00:54:25;;;;;;;2.40;2.20;;;21.30;54.80;22.50;101149.00;;;;5049457;28;20173;-52
2022/04/14 00:56:50;;;;;;;2.67;2.47;;;21.30;54.80;22.40;101091.00;;;;5067165;28;20176;-53
2022/04/14 00:59:16;;;;;;;2.93;2.33;;;21.30;54.80;22.40;101148.00;;;;5067412;28;20177;-52
2022/04/14 01:01:42;;;;;;;2.40;2.20;;;21.30;54.80;22.40;101151.00;;;;5067360;28;20199;-52
2022/04/14 01:04:08;;;;;;;2.90;2.70;;;21.30;54.80;22.40;101156.00;;;;5065881;28;20191;-51
2022/04/14 01:06:37;;;;;;;2.90;2.60;;;21.30;54.80;22.40;101148.00;;;;5049098;28;20173;-52
2022/04/14 01:09:21;;;;;;;3.03;2.40;;;21.30;54.80;22.40;101150.00;;;;5049551;28;20211;-52
2022/04/14 01:11:51;;;;;;;2.40;2.20;;;21.30;54.80;22.40;101153.00;;;;5052125;28;20192;-53
2022/04/14 01:14:31;;;;;;;2.73;2.50;;;21.30;54.80;22.40;101143.00;;;;5067133;28;20160;-52
2022/04/14 01:17:03;;;;;;;2.77;2.40;;;21.20;54.80;22.30;101146.00;;;;5066853;28;20170;-52
2022/04/14 01:19:29;;;;;;;2.40;2.20;;;21.30;54.90;22.30;101151.00;;;;5073277;28;20240;-52
2022/04/14 01:22:08;;;;;;;2.37;2.17;;;21.20;54.80;22.30;101151.00;;;;5072958;28;20190;-52
2022/04/14 01:24:34;;;;;;;2.50;2.30;;;21.20;54.90;22.30;101155.00;;;;5067221;28;20164;-52
2022/04/14 01:27:00;;;;;;;2.57;2.33;;;21.20;54.90;22.30;101155.00;;;;5066016;28;20177;-52
2022/04/14 01:29:27;;;;;;;2.47;2.27;;;21.20;54.90;22.30;101151.00;;;;5066895;28;20196;-52
2022/04/14 01:31:53;;;;;;;2.70;2.37;;;21.10;54.80;22.30;101163.00;;;;5067535;28;20196;-51
2022/04/14 01:34:19;;;;;;;2.60;2.40;;;21.20;54.90;22.30;101168.00;;;;5067253;28;20183;-51
2022/04/14 01:36:45;;;;;;;2.50;2.30;;;21.10;54.80;22.20;101164.00;;;;5065640;28;20531;-51
2022/04/14 01:39:11;;;;;;;4.27;2.57;;;21.20;55.00;22.20;101164.00;;;;5067300;28;20201;-51
2022/04/14 01:41:41;;;;;;;3.40;2.60;;;21.10;54.90;22.20;101167.00;;;;5067106;28;20893;-51
2022/04/14 01:44:07;;;;;;;2.70;2.50;;;21.10;55.00;22.20;101165.00;;;;5067337;28;20154;-52
2022/04/14 01:46:33;;;;;;;2.50;2.30;;;21.10;55.00;22.20;101172.00;;;;5065716;28;20210;-51
2022/04/14 01:48:59;;;;;;;3.33;2.30;;;21.10;55.00;22.20;101172.00;;;;5066765;28;20576;-52
2022/04/14 01:51:29;;;;;;;2.70;2.50;;;21.10;55.10;22.20;101172.00;;;;5065645;28;20246;-51
2022/04/14 01:53:55;;;;;;;2.90;2.60;;;21.00;55.70;22.20;101182.00;;;;5066165;28;20180;-52
2022/04/14 01:56:21;;;;;;;3.00;2.60;;;21.00;55.00;22.20;101114.00;;;;5066301;28;20285;-52
2022/04/14 01:58:48;;;;;;;3.20;2.90;;;21.00;55.00;22.20;101178.00;;;;5066946;28;20165;-52
2022/04/14 02:01:13;;;;;;;2.90;2.70;;;21.10;55.10;22.10;101178.00;;;;5066802;28;20604;-50
2022/04/14 02:03:39;;;;;;;3.13;2.83;;;21.00;55.10;22.20;101187.00;;;;5066031;28;20170;-52
2022/04/14 02:06:05;;;;;;;3.80;3.00;;;21.00;55.10;22.10;101191.00;;;;5066195;28;20170;-52
2022/04/14 02:08:31;;;;;;;3.20;2.90;;;21.00;55.10;22.10;101187.00;;;;5065948;28;20169;-52
2022/04/14 02:10:56;;;;;;;3.20;2.90;;;21.00;55.20;22.10;101182.00;;;;5065711;28;20538;-52
2022/04/14 02:13:22;;;;;;;3.27;2.97;;;21.00;55.20;22.10;101187.00;;;;5070143;28;20169;-52
2022/04/14 02:15:48;;;;;;;3.30;3.00;;;21.00;55.30;22.10;101189.00;;;;5066043;28;20218;-52
2022/04/14 02:18:13;;;;;;;3.97;3.60;;;21.00;55.30;22.10;101181.00;;;;5065694;28;20717;-52
2022/04/14 02:20:39;;;;;;;3.67;3.33;;;20.90;55.30;22.10;101168.00;;;;5065277;28;20205;-52
2022/04/14 02:23:05;;;;;;;3.40;3.10;;;21.00;55.40;22.00;101168.00;;;;5066116;28;20172;-52
2022/04/14 02:25:31;;;;;;;4.57;3.70;;;20.90;55.30;22.00;101166.00;;;;5069144;28;20516;-52
2022/04/14 02:27:56;;;;;;;4.17;3.47;;;20.90;55.70;22.10;101154.00;;;;5065551;28;20192;-51
2022/04/14 02:30:23;;;;;;;4.60;3.80;;;21.00;55.70;22.00;101165.00;;;;5064161;28;20201;-52
2022/04/14 02:32:48;;;;;;;5.20;3.67;;;21.00;55.70;22.10;101164.00;;;;5065344;28;20172;-52
2022/04/14 02:35:14;;;;;;;3.73;3.40;;;20.90;55.70;22.10;101161.00;;;;5065288;28;20165;-53
2022/04/14 02:37:40;;;;;;;3.80;3.50;;;21.00;55.60;22.10;101159.00;;;;5066563;28;20252;-51
2022/04/14 02:40:06;;;;;;;3.87;3.50;;;20.90;55.60;22.00;101158.00;;;;5071653;28;20177;-51
2022/04/14 02:42:32;;;;;;;4.17;3.77;;;20.90;55.50;22.10;101155.00;;;;5069599;28;20602;-53
2022/04/14 02:44:58;;;;;;;4.23;3.70;;;20.90;55.60;22.00;101153.00;;;;5069073;28;20169;-52
2022/04/14 02:47:24;;;;;;;9.47;4.20;;;21.00;55.70;22.00;101146.00;;;;5069354;28;20176;-52
2022/04/14 02:49:49;;;;;;;4.47;3.70;;;20.90;55.70;22.00;101154.00;;;;5069678;28;20204;-52
2022/04/14 02:52:15;;;;;;;4.77;3.23;;;20.90;55.70;22.00;101163.00;;;;5069485;28;20193;-51
2022/04/14 02:54:41;;;;;;;4.23;3.30;;;20.90;55.60;22.00;101158.00;;;;5069189;28;20172;-52
2022/04/14 02:57:07;;;;;;;4.40;3.50;;;20.90;55.50;22.00;101159.00;;;;5072001;28;20219;-52
2022/04/14 02:59:33;;;;;;;4.37;3.97;;;20.90;55.30;22.00;101169.00;;;;5069754;28;20196;-52
2022/04/14 03:01:59;;;;;;;4.13;3.40;;;20.90;55.30;21.90;101106.00;;;;5069219;28;20204;-51
2022/04/14 03:04:26;;;;;;;4.97;3.70;;;20.80;55.20;21.90;101163.00;;;;5068953;28;20188;-53
2022/04/14 03:06:52;;;;;;;4.67;3.40;;;20.80;55.20;21.90;101155.00;;;;5068722;28;20268;-53
2022/04/14 03:09:18;;;;;;;4.23;3.83;;;20.80;55.20;21.90;101163.00;;;;5063752;28;20321;-52
2022/04/14 03:11:43;;;;;;;4.80;3.50;;;20.80;55.30;21.90;101165.00;;;;5055881;28;20253;-52
2022/04/14 03:14:09;;;;;;;4.20;3.43;;;20.80;55.20;21.90;101163.00;;;;5048143;28;20166;-51
2022/04/14 03:16:35;;;;;;;4.43;3.47;;;20.80;55.20;21.80;101145.00;;;;5047168;28;20163;-53
2022/04/14 03:19:01;;;;;;;4.40;3.70;;;20.80;55.20;21.80;101151.00;;;;5048646;28;20155;-52
2022/04/14 03:21:26;;;;;;;4.13;3.73;;;20.80;55.20;21.80;101153.00;;;;5047791;28;20603;-52
2022/04/14 03:23:52;;;;;;;4.27;3.57;;;20.80;55.20;21.80;101160.00;;;;5049147;28;20255;-54
2022/04/14 03:26:18;;;;;;;4.37;3.70;;;20.80;55.20;21.80;101150.00;;;;5049166;28;20236;-51
2022/04/14 03:28:43;;;;;;;4.27;3.87;;;20.70;55.00;21.80;101138.00;;;;5049109;28;20541;-53
2022/04/14 03:31:10;;;;;;;4.30;3.90;;;20.80;55.10;21.80;101122.00;;;;5049130;28;20192;-52
2022/04/14 03:33:36;;;;;;;5.33;3.77;;;20.70;55.00;21.80;101117.00;;;;5048415;28;20168;-52
2022/04/14 03:36:02;;;;;;;4.90;3.77;;;20.70;55.00;21.80;101116.00;;;;5048262;28;20178;-53
2022/04/14 03:38:27;;;;;;;5.20;4.00;;;20.70;55.00;21.70;101127.00;;;;5048907;28;20199;-53
2022/04/14 03:40:53;;;;;;;3.97;3.50;;;20.70;55.00;21.70;101139.00;;;;5046103;28;20738;-52
2022/04/14 03:43:19;;;;;;;5.00;3.53;;;20.70;55.00;21.70;101155.00;;;;5048510;28;20260;-51
2022/04/14 03:45:45;;;;;;;5.73;3.73;;;20.70;54.90;21.70;101155.00;;;;5047889;28;20178;-51
2022/04/14 03:48:10;;;;;;;4.10;3.70;;;20.60;55.10;21.70;101163.00;;;;5047820;28;20163;-51
2022/04/14 03:50:36;;;;;;;4.37;3.50;;;20.70;55.10;21.70;101164.00;;;;5047478;28;20215;-51
2022/04/14 03:53:02;;;;;;;5.27;3.60;;;20.70;55.10;21.70;101155.00;;;;5047342;28;20642;-52
2022/04/14 03:55:27;;;;;;;3.87;3.47;;;20.60;55.00;21.70;101163.00;;;;5046136;28;20167;-53
2022/04/14 03:57:53;;;;;;;5.17;3.50;;;20.60;55.00;21.70;101162.00;;;;5049949;28;20308;-53
2022/04/14 04:00:19;;;;;;;4.53;3.60;;;20.60;55.00;21.70;101157.00;;;;5052526;28;20562;-52
2022/04/14 04:02:45;;;;;;;3.93;3.60;;;20.60;55.00;21.70;101144.00;;;;5048322;28;20182;-53
2022/04/14 04:05:11;;;;;;;4.73;3.50;;;20.60;55.00;21.70;101138.00;;;;5047503;28;20172;-52
2022/04/14 04:07:37;;;;;;;6.23;3.50;;;20.60;55.10;21.70;101138.00;;;;5049313;28;20170;-53
2022/04/14 04:10:04;;;;;;;4.10;3.70;;;20.60;55.10;21.70;101151.00;;;;5048154;28;20201;-53
2022/04/14 04:12:30;;;;;;;5.70;3.60;;;20.60;55.10;21.60;101170.00;;;;5053990;28;20508;-52
2022/04/14 04:14:56;;;;;;;3.93;3.60;;;20.60;55.10;21.60;101163.00;;;;5072425;28;20164;-53
2022/04/14 04:17:21;;;;;;;5.30;3.60;;;20.60;55.20;21.60;101168.00;;;;5066439;28;20552;-53
2022/04/14 04:19:47;;;;;;;4.20;3.80;;;20.60;55.30;21.60;101174.00;;;;5067896;28;20179;-52
2022/04/14 04:22:13;;;;;;;4.03;3.63;;;20.60;55.30;21.60;101184.00;;;;5067695;28;20195;-52
2022/04/14 04:24:38;;;;;;;5.73;3.80;;;20.60;55.30;21.60;101191.00;;;;5066251;28;20183;-52
2022/04/14 04:27:05;;;;;;;4.73;3.83;;;20.60;55.30;21.60;101182.00;;;;5067512;28;20174;-53
2022/04/14 04:29:30;;;;;;;4.37;3.73;;;20.60;55.30;21.60;101192.00;;;;5068025;28;20337;-52
2022/04/14 04:31:56;;;;;;;4.00;3.60;;;20.50;55.30;21.60;101194.00;;;;5066918;28;20297;-52
2022/04/14 04:34:22;;;;;;;4.47;3.47;;;20.50;55.30;21.60;101195.00;;;;5067259;28;20165;-53
2022/04/14 04:36:48;;;;;;;4.00;3.70;;;20.50;55.30;21.60;101194.00;;;;5067298;28;20583;-53
2022/04/14 04:39:13;;;;;;;4.47;3.83;;;20.50;55.30;21.60;101197.00;;;;5066207;28;20186;-51
2022/04/14 04:41:39;;;;;;;4.20;3.80;;;20.50;55.30;21.60;101211.00;;;;5066624;28;20195;-51
2022/04/14 04:44:05;;;;;;;4.30;3.90;;;20.50;55.40;21.50;101205.00;;;;5066561;28;20173;-52
2022/04/14 04:46:31;;;;;;;5.77;4.17;;;20.50;55.50;21.50;101196.00;;;;5067432;28;20172;-52
2022/04/14 04:48:57;;;;;;;4.87;3.90;;;20.50;55.50;21.50;101200.00;;;;5066853;28;20220;-52
2022/04/14 04:51:24;;;;;;;4.03;3.70;;;20.50;55.50;21.50;101200.00;;;;5066475;28;20221;-52
2022/04/14 04:53:50;;;;;;;3.80;3.50;;;20.40;55.50;21.50;101203.00;;;;5066226;28;20168;-52
2022/04/14 04:56:18;;;;;;;4.10;3.70;;;20.50;55.50;21.50;101203.00;;;;5066807;28;20178;-52
2022/04/14 04:58:44;;;;;;;5.10;3.70;;;20.40;55.50;21.50;101202.00;;;;5067130;28;20174;-52
2022/04/14 05:01:10;;;;;;;4.20;3.80;;;20.40;55.50;21.50;101203.00;;;;5065904;28;20832;-52
2022/04/14 05:03:35;;;;;;;4.27;3.87;;;20.40;55.50;21.40;101207.00;;;;5066152;28;20259;-52
2022/04/14 05:06:01;;;;;;;3.93;3.63;;;20.40;55.60;21.40;101212.00;;;;5066342;28;20165;-53
2022/04/14 05:08:27;;;;;;;4.10;3.70;;;20.40;55.60;21.40;101216.00;;;;5066374;28;20236;-53
2022/04/14 05:10:54;;;;;;;4.20;3.80;;;20.40;55.60;21.40;101157.00;;;;5066476;28;20237;-53
2022/04/14 05:13:19;;;;;;;4.33;3.83;;;20.40;55.50;21.40;101219.00;;;;5066278;28;20182;-52
2022/04/14 05:15:45;;;;;;;4.57;3.93;;;20.40;55.60;21.40;101215.00;;;;5066567;28;20167;-52
2022/04/14 05:18:11;;;;;;;3.93;3.63;;;20.30;55.50;21.40;101220.00;;;;5071881;28;20538;-53
2022/04/14 05:20:36;;;;;;;4.20;3.80;;;20.30;55.50;21.40;101218.00;;;;5068210;28;20198;-52
2022/04/14 05:23:03;;;;;;;4.67;3.77;;;20.30;55.50;21.40;101214.00;;;;5066192;28;20178;-53
2022/04/14 05:25:29;;;;;;;4.93;4.27;;;20.30;55.60;21.40;101221.00;;;;5065726;28;20176;-53
2022/04/14 05:27:55;;;;;;;4.30;3.80;;;20.30;55.60;21.30;101223.00;;;;5066375;28;20231;-51
2022/04/14 05:30:21;;;;;;;3.97;3.63;;;20.30;55.50;21.30;101222.00;;;;5065833;28;20206;-52
2022/04/14 05:32:46;;;;;;;3.93;3.57;;;20.30;55.50;21.30;101226.00;;;;5066165;28;20183;-53
2022/04/14 05:35:12;;;;;;;4.63;3.80;;;20.30;55.60;21.30;101239.00;;;;5066662;28;20173;-50
2022/04/14 05:37:38;;;;;;;3.80;3.50;;;20.30;55.60;21.30;101222.00;;;;5065535;28;20172;-52
2022/04/14 05:40:05;;;;;;;3.70;3.40;;;20.30;55.60;21.30;101213.00;;;;5064777;28;20216;-52
2022/04/14 05:42:31;;;;;;;4.87;4.10;;;20.30;55.70;21.30;101228.00;;;;5066096;28;20174;-51
2022/04/14 05:44:58;;;;;;;5.67;3.90;;;20.30;55.70;21.30;101235.00;;;;5066071;28;20175;-53
2022/04/14 05:47:24;;;;;;;3.83;3.53;;;20.30;55.70;21.30;101243.00;;;;5065997;28;20185;-51
2022/04/14 05:49:51;;;;;;;4.30;3.90;;;20.20;55.70;21.30;101253.00;;;;5074355;28;20197;-52
2022/04/14 05:52:17;;;;;;;3.97;3.57;;;20.20;55.70;21.30;101250.00;;;;5067374;28;20209;-52
2022/04/14 05:54:46;;;;;;;4.20;3.90;;;20.20;55.70;21.30;101256.00;;;;5066079;28;20711;-52
2022/04/14 05:57:13;;;;;;;4.17;3.77;;;20.20;55.70;21.30;101254.00;;;;5066644;28;20202;-52
2022/04/14 05:59:39;;;;;;;4.17;3.40;;;20.20;55.70;21.30;101258.00;;;;5065055;28;20226;-51
2022/04/14 06:02:05;;;;;;;5.03;4.13;;;20.20;55.70;21.20;101251.00;;;;5065201;28;20208;-52
2022/04/14 06:04:30;;;;;;;4.00;3.60;;;20.20;55.70;21.20;101234.00;;;;5065675;28;20212;-52
2022/04/14 06:06:56;;;;;;;4.07;3.67;;;20.20;55.70;21.20;101246.00;;;;5065709;28;20203;-52
2022/04/14 06:09:22;;;;;;;4.20;3.80;;;20.20;55.80;21.20;101243.00;;;;5065209;28;20228;-52
2022/04/14 06:11:47;;;;;;;4.17;3.77;;;20.20;55.70;21.20;101245.00;;;;5065401;28;20198;-52
2022/04/14 06:14:13;;;;;;;4.20;3.80;;;20.20;55.80;21.20;101238.00;;;;5066895;28;20318;-51
2022/04/14 06:16:39;;;;;;;5.37;3.70;;;20.20;56.10;21.20;101242.00;;;;5064781;28;20536;-51
2022/04/14 06:19:04;;;;;;;6.63;4.10;;;20.20;56.20;21.20;101244.00;;;;5066469;28;20191;-53
2022/04/14 06:21:30;;;;;;;6.63;3.77;;;20.10;56.10;21.20;101249.00;;;;5065824;28;20196;-51
2022/04/14 06:23:57;;;;;;;4.50;3.80;;;20.10;55.80;21.20;101246.00;;;;5064946;28;20166;-53
2022/04/14 06:26:23;;;;;;;4.10;3.70;;;20.10;55.70;21.20;101239.00;;;;5065607;28;20183;-52
2022/04/14 06:28:48;;;;;;;3.50;3.20;;;20.10;55.90;21.20;101250.00;;;;5065352;28;20635;-54
2022/04/14 06:31:14;;;;;;;4.90;3.53;;;20.10;55.70;21.20;101264.00;;;;5063493;28;20193;-52
2022/04/14 06:33:40;;;;;;;3.80;3.50;;;20.20;55.80;21.20;101256.00;;;;5064929;28;20162;-53
2022/04/14 06:36:06;;;;;;;3.43;3.13;;;20.10;55.70;21.20;101270.00;;;;5063720;28;20821;-53
2022/04/14 06:38:32;;;;;;;3.90;3.27;;;20.10;55.70;21.20;101263.00;;;;5070016;28;20192;-52
2022/04/14 06:40:57;;;;;;;4.67;3.40;;;20.10;55.70;21.20;101264.00;;;;5067128;28;20280;-52
2022/04/14 06:43:24;;;;;;;3.97;3.13;;;20.10;55.80;21.10;101261.00;;;;5065101;28;20174;-52
2022/04/14 06:45:51;;;;;;;5.00;3.40;;;20.10;55.70;21.10;101270.00;;;;5065104;28;20177;-52
2022/04/14 06:48:16;;;;;;;6.03;3.10;;;20.10;55.80;21.10;101259.00;;;;5064005;28;20571;-51
2022/04/14 06:50:42;;;;;;;4.50;3.27;;;20.10;55.80;21.10;101272.00;;;;5063417;28;20246;-52
2022/04/14 06:53:08;;;;;;;3.93;3.00;;;20.10;55.90;21.20;101203.00;;;;5064391;28;20178;-51
2022/04/14 06:55:35;;;;;;;3.33;3.03;;;20.10;55.90;21.20;101272.00;;;;5064980;28;20189;-51
2022/04/14 06:58:01;;;;;;;3.47;3.17;;;20.10;55.90;21.20;101278.00;;;;5057063;28;20177;-51
2022/04/14 07:00:27;;;;;;;3.83;2.90;;;20.10;56.00;21.20;101290.00;;;;5068035;28;20570;-53
2022/04/14 07:02:54;;;;;;;3.33;3.00;;;20.10;56.10;21.20;101295.00;;;;5067821;28;20232;-51
2022/04/14 07:05:20;;;;;;;3.90;3.10;;;20.10;56.10;21.20;101290.00;;;;5066878;28;20718;-53
2022/04/14 07:07:46;;;;;;;3.10;2.80;;;20.10;56.10;21.10;101295.00;;;;5068172;28;20205;-53
2022/04/14 07:10:12;;;;;;;3.40;3.10;;;20.10;56.00;21.20;101295.00;;;;5067123;28;20199;-51
2022/04/14 07:12:39;;;;;;;6.27;3.20;;;20.10;56.10;21.20;101286.00;;;;5067461;28;20179;-51
2022/04/14 07:15:05;;;;;;;5.80;2.80;;;20.10;56.50;21.20;101283.00;;;;5066781;28;20203;-54
2022/04/14 07:17:31;;;;;;;3.37;3.00;;;20.10;56.70;21.20;101286.00;;;;5066066;28;20601;-52
2022/04/14 07:19:58;;;;;;;4.13;2.80;;;20.20;56.50;21.20;101282.00;;;;5067797;28;20188;-52
2022/04/14 07:22:24;;;;;;;4.63;3.20;;;20.10;56.50;21.10;101291.00;;;;5067983;28;20245;-52
2022/04/14 07:24:50;;;;;;;5.40;2.90;;;20.10;56.50;21.10;101277.00;;;;5067987;28;20175;-52
2022/04/14 07:27:18;;;;;;;3.77;3.20;;;20.10;56.40;21.10;101272.00;;;;5067838;28;20268;-52
2022/04/14 07:29:45;;;;;;;6.30;3.40;;;20.10;56.40;21.20;101283.00;;;;5071048;28;20279;-53
2022/04/14 07:32:12;;;;;;;5.03;3.57;;;20.10;56.90;21.10;101293.00;;;;5070931;28;20198;-54
2022/04/14 07:34:38;;;;;;;10.03;4.30;;;20.10;57.00;21.10;101290.00;;;;5070956;28;20664;-54
2022/04/14 07:37:04;;;;;;;11.87;5.03;;;20.10;57.60;21.10;101293.00;;;;5071062;28;20192;-51
2022/04/14 07:39:30;;;;;;;13.00;5.53;;;20.20;58.10;21.10;101296.00;;;;5081031;28;20185;-51
2022/04/14 07:41:55;;;;;;;12.03;6.20;;;20.10;58.70;21.10;101303.00;;;;5070755;28;20702;-51
2022/04/14 07:44:21;;;;;;;8.67;6.17;;;20.10;59.50;21.10;101303.00;;;;5070552;28;20178;-51
2022/04/14 07:46:47;;;;;;;11.50;6.20;;;20.10;59.20;21.10;101306.00;;;;5069977;28;20218;-51
2022/04/14 07:49:12;;;;;;;9.13;5.50;;;20.10;59.60;21.10;101305.00;;;;5069901;28;20202;-51
2022/04/14 07:51:40;;;;;;;12.63;6.77;;;20.10;59.20;21.10;101305.00;;;;5069124;28;20198;-51
2022/04/14 07:54:06;;;;;;;13.40;6.87;;;20.10;59.70;21.10;101307.00;;;;5070430;28;20220;-51
2022/04/14 07:56:33;;;;;;;13.83;9.37;;;20.10;60.30;21.10;101310.00;;;;5070349;28;20169;-51
2022/04/14 07:58:59;;;;;;;11.17;8.67;;;20.10;60.80;21.10;101313.00;;;;5069683;28;20173;-52
2022/04/14 08:01:25;;;;;;;16.00;7.97;;;20.20;61.50;21.10;101305.00;;;;5068688;28;20694;-52
2022/04/14 08:03:51;;;;;;;14.67;7.90;;;20.20;61.00;21.10;101313.00;;;;5069431;28;20178;-51
2022/04/14 08:06:17;;;;;;;14.77;8.57;;;20.20;61.00;21.10;101321.00;;;;5069980;28;20178;-51
2022/04/14 08:08:43;;;;;;;13.10;9.60;;;20.20;61.50;21.10;101314.00;;;;5072859;28;20632;-52
2022/04/14 08:11:10;;;;;;;13.57;7.97;;;20.30;62.10;21.20;101317.00;;;;5070970;28;20292;-52
2022/04/14 08:13:38;;;;;;;14.47;7.70;;;20.20;61.50;21.20;101319.00;;;;5074711;28;20177;-52
2022/04/14 08:16:09;;;;;;;16.87;8.30;;;20.20;61.30;21.20;101259.00;;;;5072140;28;20651;-52
2022/04/14 08:18:39;;;;;;;13.73;8.07;;;20.20;61.40;21.20;101317.00;;;;5071097;28;20161;-52
2022/04/14 08:21:05;;;;;;;12.73;7.87;;;20.20;61.30;21.10;101314.00;;;;5069154;28;20191;-52
2022/04/14 08:23:31;;;;;;;13.23;7.50;;;20.20;61.10;21.10;101317.00;;;;5070474;28;20196;-53
2022/04/14 08:25:57;;;;;;;13.13;7.67;;;20.20;61.10;21.10;101320.00;;;;5070499;28;20630;-53
2022/04/14 08:28:23;;;;;;;13.97;7.87;;;20.20;61.00;21.10;101336.00;;;;5070176;28;20183;-51
2022/04/14 08:30:48;;;;;;;10.57;7.03;;;20.20;60.90;21.10;101320.00;;;;5070039;28;20234;-51
2022/04/14 08:33:16;;;;;;;13.70;7.60;;;20.20;60.90;21.10;101328.00;;;;5068663;28;20696;-51
2022/04/14 08:35:41;;;;;;;13.13;6.93;;;20.20;60.70;21.10;101330.00;;;;5068758;28;20647;-51
2022/04/14 08:38:07;;;;;;;11.33;7.40;;;20.20;60.50;21.10;101325.00;;;;5069175;28;20174;-52
2022/04/14 08:40:37;;;;;;;12.57;7.10;;;20.10;60.40;21.10;101336.00;;;;5069415;28;20222;-52
2022/04/14 08:43:05;;;;;;;11.27;6.67;;;20.20;60.40;21.10;101327.00;;;;5067934;28;20181;-52
2022/04/14 08:45:52;;;;;;;12.97;6.50;;;20.20;60.20;21.10;101327.00;;;;5068740;28;20246;-52
2022/04/14 08:48:20;;;;;;;10.80;5.77;;;20.10;60.00;21.10;101323.00;;;;5068285;28;20645;-51
2022/04/14 08:50:48;;;;;;;11.27;6.10;;;20.20;59.80;21.10;101326.00;;;;4929533;28;20290;-53
2022/04/14 08:53:14;;;;;;;9.30;6.20;;;20.10;59.70;21.10;101327.00;;;;5053335;28;20177;-52
2022/04/14 08:55:40;;;;;;;8.63;6.20;;;20.10;59.70;21.10;101322.00;;;;5067523;28;20169;-52
2022/04/14 08:58:12;;;;;;;8.37;6.13;;;20.10;59.60;21.10;101320.00;;;;5069375;28;20261;-52
2022/04/14 09:00:38;;;;;;;7.03;5.90;;;20.10;59.50;21.10;101317.00;;;;5068827;28;20213;-51
2022/04/14 09:03:04;;;;;;;9.00;6.10;;;20.10;59.40;21.10;101306.00;;;;5052428;28;20187;-52
2022/04/14 09:05:30;;;;;;;7.70;5.50;;;20.10;59.30;21.10;101322.00;;;;5070427;28;20205;-50
2022/04/14 09:07:55;;;;;;;7.60;5.50;;;20.00;59.20;21.10;101323.00;;;;5069235;28;20268;-52
2022/04/14 09:10:21;;;;;;;9.60;5.63;;;20.10;59.20;21.10;101322.00;;;;5067969;28;20666;-51
2022/04/14 09:12:48;;;;;;;6.57;5.73;;;20.00;59.10;21.10;101319.00;;;;5070486;28;20188;-51
2022/04/14 09:15:15;;;;;;;8.10;5.77;;;20.00;58.90;21.10;101321.00;;;;5052848;28;20647;-52
2022/04/14 09:17:40;;;;;;;6.50;5.20;;;20.00;58.90;21.10;101324.00;;;;5067694;28;20158;-51
2022/04/14 09:20:34;;;;;;;11.00;5.83;;;20.00;58.80;21.10;101316.00;;;;5068696;28;20185;-51
2022/04/14 09:23:26;;;;;;;7.27;5.33;;;20.00;58.80;21.20;101324.00;;;;5068595;28;20678;-52
2022/04/14 09:26:13;;;;;;;5.97;5.37;;;20.00;58.80;21.10;101316.00;;;;5068375;28;20177;-54
2022/04/14 09:28:40;;;;;;;8.77;5.37;;;20.00;58.70;21.10;101325.00;;;;5067601;28;20539;-52
2022/04/14 09:31:10;;;;;;;12.07;5.43;;;20.00;58.70;21.10;101318.00;;;;5066566;28;20214;-53
2022/04/14 09:33:48;;;;;;;8.87;5.57;;;20.10;58.70;21.10;101313.00;;;;5067920;28;20180;-54
2022/04/14 09:36:16;;;;;;;5.70;5.10;;;20.00;58.60;21.10;101320.00;;;;5073952;28;20839;-52
2022/04/14 09:38:50;;;;;;;6.87;5.60;;;20.10;58.70;21.10;101312.00;;;;5077533;28;20676;-52
2022/04/14 09:41:40;;;;;;;7.97;5.00;;;20.00;58.50;21.10;101313.00;;;;5067190;28;20594;-52
2022/04/14 09:44:10;;;;;;;8.57;5.13;;;20.00;58.60;21.10;101321.00;;;;5068079;28;20204;-51
2022/04/14 09:46:46;;;;;;;9.53;5.63;;;20.10;58.90;21.10;101311.00;;;;5067979;28;20674;-52
2022/04/14 09:49:13;;;;;;;13.43;6.10;;;20.10;59.20;21.10;101312.00;;;;4998931;28;20327;-52
2022/04/14 09:51:41;;;;;;;21.33;6.03;;;20.10;60.90;21.10;101315.00;;;;5068064;28;20202;-52
2022/04/14 09:54:15;;;;;;;14.47;5.70;;;20.20;60.90;21.20;101310.00;;;;5068225;28;20182;-52
2022/04/14 09:56:45;;;;;;;11.33;5.57;;;20.20;61.50;21.20;101302.00;;;;5069018;28;20154;-51
2022/04/14 09:59:12;;;;;;;16.00;5.60;;;20.20;61.40;21.20;101306.00;;;;5069145;28;20204;-52
2022/04/14 10:01:38;;;;;;;12.37;5.50;;;20.30;61.60;21.20;101292.00;;;;5067511;28;20210;-53
2022/04/14 10:04:07;;;;;;;10.57;6.03;;;20.20;61.50;21.00;101301.00;;;;5068489;28;20183;-53
2022/04/14 10:06:33;;;;;;;18.83;7.90;;;20.20;61.50;21.20;101294.00;;;;5068001;28;20173;-52
2022/04/14 10:08:59;;;;;;;20.80;8.70;;;20.20;61.50;21.20;101291.00;;;;5067428;28;20174;-51
2022/04/14 10:11:28;;;;;;;24.40;9.53;;;20.30;61.20;21.00;101284.00;;;;5067809;28;20530;-52
2022/04/14 10:13:53;;;;;;;21.60;8.77;;;20.30;61.60;21.20;101279.00;;;;5066744;28;20259;-52
2022/04/14 10:16:21;;;;;;;19.10;8.37;;;20.30;61.70;21.20;101294.00;;;;5067669;28;20322;-53
2022/04/14 10:18:47;;;;;;;16.93;8.23;;;20.30;61.60;21.30;101284.00;;;;5067156;28;20232;-52
2022/04/14 10:21:14;;;;;;;21.83;8.80;;;20.30;61.50;21.30;101281.00;;;;5066508;28;20199;-53
2022/04/14 10:23:39;;;;;;;14.00;8.23;;;20.30;61.60;21.30;101277.00;;;;5066533;28;20166;-52
2022/04/14 10:26:06;;;;;;;19.53;7.93;;;20.30;61.60;21.30;101278.00;;;;5066542;28;20174;-52
2022/04/14 10:28:32;;;;;;;13.83;8.07;;;20.30;61.30;21.30;101274.00;;;;5068330;28;20723;-52
2022/04/14 10:30:57;;;;;;;16.90;7.63;;;20.30;61.60;21.30;101271.00;;;;5066626;28;20212;-53
2022/04/14 10:33:23;;;;;;;14.43;7.83;;;20.30;61.60;21.30;101264.00;;;;5066113;28;20189;-51
2022/04/14 10:35:50;;;;;;;14.60;7.53;;;20.30;61.50;21.30;101250.00;;;;5067466;28;20269;-52
2022/04/14 10:38:33;;;;;;;14.70;7.13;;;20.30;61.60;21.30;101259.00;;;;5067767;28;20172;-52
2022/04/14 10:41:17;;;;;;;14.63;7.53;;;20.30;61.50;21.30;101255.00;;;;5065958;28;20271;-51
2022/04/14 10:43:46;;;;;;;16.17;7.33;;;20.30;61.60;21.30;101261.00;;;;5067811;28;20496;-52